Time;durP1;ratioP1;P1;durP2;ratioP2;P2;SDS_P1;SDS_P2;PMS_P1;PMS_P2;Temp;Humidity;BMP_temperature;BMP_pressure;BME280_temperature;BME280_humidity;BME280_pressure;Samples;Min_cycle;Max_cycle;Signal;HPM_P1;HPM_P2
2023/04/30 00:00:40;;;;;;;1.50;1.40;;;;;;;;;;5018028;28;20551;-63
2023/04/30 00:03:08;;;;;;;1.50;1.40;;;;;;;;;;5018011;28;20230;-63
2023/04/30 00:05:36;;;;;;;1.35;1.30;;;;;;;;;;5018207;28;20646;-63
2023/04/30 00:08:05;;;;;;;1.48;1.30;;;;;;;;;;5017546;28;20206;-63
2023/04/30 00:10:32;;;;;;;1.40;1.30;;;;;;;;;;5018393;28;20309;-63
2023/04/30 00:13:00;;;;;;;1.67;1.58;;;;;;;;;;5017830;28;20210;-63
2023/04/30 00:15:27;;;;;;;1.38;1.27;;;;;;;;;;5017833;28;20206;-63
2023/04/30 00:17:55;;;;;;;1.67;1.58;;;;;;;;;;5018291;28;20538;-63
2023/04/30 00:20:22;;;;;;;1.25;1.15;;;;;;;;;;5018482;28;20293;-62
2023/04/30 00:22:50;;;;;;;1.40;1.30;;;;;;;;;;5017880;28;20206;-63
2023/04/30 00:25:19;;;;;;;1.50;1.40;;;;;;;;;;5017284;28;20240;-63
2023/04/30 00:27:47;;;;;;;1.40;1.30;;;;;;;;;;5017808;28;20337;-63
2023/04/30 00:30:15;;;;;;;1.60;1.50;;;;;;;;;;5017800;28;20609;-63
2023/04/30 00:32:44;;;;;;;1.38;1.33;;;;;;;;;;5018069;28;20206;-63
2023/04/30 00:35:12;;;;;;;1.50;1.40;;;;;;;;;;5018211;28;20242;-63
2023/04/30 00:37:39;;;;;;;1.40;1.30;;;;;;;;;;5018361;28;20300;-63
2023/04/30 00:40:08;;;;;;;1.48;1.38;;;;;;;;;;5017831;28;20301;-63
2023/04/30 00:42:36;;;;;;;1.50;1.40;;;;;;;;;;5017733;28;20260;-63
2023/04/30 00:45:04;;;;;;;1.20;1.15;;;;;;;;;;5018033;28;20236;-63
2023/04/30 00:47:32;;;;;;;1.60;1.50;;;;;;;;;;5017855;28;20218;-63
2023/04/30 00:49:59;;;;;;;1.60;1.50;;;;;;;;;;5017825;28;20214;-63
2023/04/30 00:52:27;;;;;;;1.70;1.60;;;;;;;;;;5017626;28;20289;-63
2023/04/30 00:54:55;;;;;;;1.48;1.38;;;;;;;;;;5017823;28;20673;-63
2023/04/30 00:57:23;;;;;;;1.40;1.30;;;;;;;;;;5017491;28;20590;-63
2023/04/30 00:59:52;;;;;;;1.70;1.60;;;;;;;;;;5017513;28;20210;-64
2023/04/30 01:02:20;;;;;;;2.10;1.33;;;;;;;;;;5017552;28;20268;-63
2023/04/30 01:04:47;;;;;;;1.40;1.30;;;;;;;;;;5017360;28;20324;-63
2023/04/30 01:07:15;;;;;;;1.20;1.20;;;;;;;;;;5017504;28;20270;-64
2023/04/30 01:09:43;;;;;;;1.40;1.30;;;;;;;;;;5017240;28;20257;-63
2023/04/30 01:12:14;;;;;;;1.40;1.30;;;;;;;;;;5017227;28;20581;-63
2023/04/30 01:14:46;;;;;;;1.40;1.30;;;;;;;;;;5017489;28;20213;-63
2023/04/30 01:17:18;;;;;;;1.50;1.40;;;;;;;;;;5017424;28;20301;-63
2023/04/30 01:19:46;;;;;;;1.30;1.20;;;;;;;;;;5017436;28;20206;-63
2023/04/30 01:22:20;;;;;;;1.60;1.50;;;;;;;;;;5017381;28;20293;-63
2023/04/30 01:24:54;;;;;;;1.70;1.60;;;;;;;;;;5017249;28;20278;-63
2023/04/30 01:27:31;;;;;;;1.50;1.40;;;;;;;;;;5016892;28;20210;-63
2023/04/30 01:30:00;;;;;;;2.40;1.45;;;;;;;;;;5016997;28;20484;-63
2023/04/30 01:32:27;;;;;;;1.67;1.58;;;;;;;;;;5017542;28;20225;-63
2023/04/30 01:34:55;;;;;;;1.50;1.40;;;;;;;;;;5017261;28;20315;-63
2023/04/30 01:37:25;;;;;;;1.40;1.30;;;;;;;;;;5019525;28;20305;-63
2023/04/30 01:39:58;;;;;;;1.52;1.40;;;;;;;;;;5021690;28;20233;-63
2023/04/30 01:42:30;;;;;;;1.25;1.20;;;;;;;;;;5021026;28;20300;-63
2023/04/30 01:45:20;;;;;;;1.58;1.48;;;;;;;;;;5020946;28;20230;-63
2023/04/30 01:47:49;;;;;;;1.70;1.60;;;;;;;;;;5020905;28;20296;-63
2023/04/30 01:50:21;;;;;;;1.40;1.30;;;;;;;;;;5021446;28;20272;-63
2023/04/30 01:52:53;;;;;;;1.40;1.30;;;;;;;;;;5020726;28;20214;-63
2023/04/30 01:55:22;;;;;;;1.38;1.27;;;;;;;;;;5020711;28;20542;-63
2023/04/30 01:57:57;;;;;;;1.50;1.40;;;;;;;;;;5020993;28;20233;-63
2023/04/30 02:00:26;;;;;;;1.60;1.50;;;;;;;;;;5020863;28;20211;-63
2023/04/30 02:02:53;;;;;;;1.50;1.40;;;;;;;;;;5020607;28;20252;-63
2023/04/30 02:05:21;;;;;;;1.40;1.30;;;;;;;;;;5020679;28;20733;-63
2023/04/30 02:07:49;;;;;;;1.50;1.40;;;;;;;;;;5020692;28;20301;-63
2023/04/30 02:10:17;;;;;;;1.40;1.30;;;;;;;;;;5020290;28;20238;-63
2023/04/30 02:12:45;;;;;;;1.50;1.40;;;;;;;;;;5019234;28;20284;-63
2023/04/30 02:15:13;;;;;;;1.45;1.35;;;;;;;;;;5019749;28;20305;-63
2023/04/30 02:17:41;;;;;;;1.60;1.50;;;;;;;;;;5019336;28;20297;-63
2023/04/30 02:20:09;;;;;;;1.33;1.33;;;;;;;;;;5019228;28;20206;-63
2023/04/30 02:22:37;;;;;;;1.50;1.40;;;;;;;;;;5019598;28;20532;-63
2023/04/30 02:25:04;;;;;;;1.90;1.65;;;;;;;;;;5019335;28;20265;-63
2023/04/30 02:27:32;;;;;;;1.60;1.50;;;;;;;;;;5019271;28;20210;-63
2023/04/30 02:30:01;;;;;;;1.67;1.58;;;;;;;;;;5019033;28;20206;-63
2023/04/30 02:32:29;;;;;;;1.40;1.30;;;;;;;;;;5018706;28;20456;-63
2023/04/30 02:34:57;;;;;;;1.40;1.33;;;;;;;;;;5019289;28;20206;-63
2023/04/30 02:37:25;;;;;;;1.45;1.35;;;;;;;;;;5018967;28;20305;-63
2023/04/30 02:39:52;;;;;;;1.42;1.33;;;;;;;;;;5018766;28;20248;-63
2023/04/30 02:42:20;;;;;;;1.63;1.52;;;;;;;;;;5019130;28;20578;-63
2023/04/30 02:44:48;;;;;;;1.60;1.50;;;;;;;;;;5018801;28;20331;-63
2023/04/30 02:47:15;;;;;;;1.60;1.50;;;;;;;;;;5018658;28;20305;-63
2023/04/30 02:49:43;;;;;;;1.70;1.60;;;;;;;;;;5018812;28;20288;-63
2023/04/30 02:52:11;;;;;;;1.83;1.73;;;;;;;;;;5018882;28;20214;-63
2023/04/30 02:54:39;;;;;;;1.40;1.30;;;;;;;;;;5018988;28;20527;-63
2023/04/30 02:57:07;;;;;;;1.73;1.63;;;;;;;;;;5018623;28;20305;-63
2023/04/30 02:59:34;;;;;;;1.90;1.80;;;;;;;;;;5018846;28;20218;-63
2023/04/30 03:02:02;;;;;;;1.70;1.60;;;;;;;;;;5018911;28;20241;-63
2023/04/30 03:04:29;;;;;;;1.50;1.40;;;;;;;;;;5018490;28;20321;-63
2023/04/30 03:06:57;;;;;;;1.50;1.40;;;;;;;;;;5018654;28;20210;-63
2023/04/30 03:09:25;;;;;;;1.60;1.50;;;;;;;;;;5018415;28;20316;-63
2023/04/30 03:11:53;;;;;;;1.50;1.40;;;;;;;;;;4974078;28;1280558;-63
2023/04/30 03:14:20;;;;;;;1.80;1.70;;;;;;;;;;5019654;28;20304;-63
2023/04/30 03:16:48;;;;;;;1.42;1.35;;;;;;;;;;5019107;28;20642;-63
2023/04/30 03:19:16;;;;;;;1.70;1.60;;;;;;;;;;5019501;28;20207;-63
2023/04/30 03:21:43;;;;;;;1.55;1.45;;;;;;;;;;5019492;28;20206;-63
2023/04/30 03:24:11;;;;;;;1.63;1.52;;;;;;;;;;5018727;28;20261;-63
2023/04/30 03:26:40;;;;;;;1.60;1.50;;;;;;;;;;5019100;28;20206;-63
2023/04/30 03:29:07;;;;;;;1.50;1.40;;;;;;;;;;5019209;28;20582;-63
2023/04/30 03:31:35;;;;;;;1.60;1.50;;;;;;;;;;5019643;28;20234;-63
2023/04/30 03:34:02;;;;;;;1.60;1.50;;;;;;;;;;5019231;28;20210;-63
2023/04/30 03:36:30;;;;;;;1.80;1.70;;;;;;;;;;5019049;28;20293;-63
2023/04/30 03:38:58;;;;;;;1.90;1.80;;;;;;;;;;5018441;28;20212;-63
2023/04/30 03:41:25;;;;;;;1.67;1.58;;;;;;;;;;5018630;28;20301;-63
2023/04/30 03:43:54;;;;;;;1.50;1.40;;;;;;;;;;5018974;28;20296;-63
2023/04/30 03:46:21;;;;;;;1.70;1.60;;;;;;;;;;5018927;28;20233;-63
2023/04/30 03:48:49;;;;;;;1.60;1.50;;;;;;;;;;5018911;28;20515;-63
2023/04/30 03:51:22;;;;;;;1.45;1.35;;;;;;;;;;5018890;28;20214;-63
2023/04/30 03:53:49;;;;;;;1.67;1.58;;;;;;;;;;5018382;28;20277;-63
2023/04/30 03:56:17;;;;;;;1.52;1.42;;;;;;;;;;5018653;28;20297;-63
2023/04/30 03:58:44;;;;;;;1.60;1.50;;;;;;;;;;5018545;28;20206;-63
2023/04/30 04:01:13;;;;;;;1.40;1.30;;;;;;;;;;5017521;28;20314;-63
2023/04/30 04:03:41;;;;;;;1.48;1.38;;;;;;;;;;5018311;28;20256;-63
2023/04/30 04:06:09;;;;;;;1.70;1.50;;;;;;;;;;5018356;28;20237;-63
2023/04/30 04:08:36;;;;;;;1.60;1.50;;;;;;;;;;5018291;28;20206;-65
2023/04/30 04:11:03;;;;;;;1.60;1.50;;;;;;;;;;5018093;28;20261;-63
2023/04/30 04:13:31;;;;;;;1.70;1.60;;;;;;;;;;5018643;28;20242;-63
2023/04/30 04:15:59;;;;;;;1.60;1.50;;;;;;;;;;5018873;28;20337;-63
2023/04/30 04:18:28;;;;;;;1.73;1.63;;;;;;;;;;5018745;28;20210;-63
2023/04/30 04:20:56;;;;;;;1.63;1.52;;;;;;;;;;5018540;28;20301;-63
2023/04/30 04:23:23;;;;;;;1.60;1.50;;;;;;;;;;5018346;28;20311;-63
2023/04/30 04:25:51;;;;;;;1.48;1.38;;;;;;;;;;5018100;28;20276;-63
2023/04/30 04:28:19;;;;;;;1.70;1.60;;;;;;;;;;5018397;28;20542;-63
2023/04/30 04:30:48;;;;;;;1.50;1.40;;;;;;;;;;5017895;28;20293;-63
2023/04/30 04:33:16;;;;;;;1.52;1.42;;;;;;;;;;5017868;28;20268;-63
2023/04/30 04:35:44;;;;;;;1.25;1.25;;;;;;;;;;5017900;28;20342;-63
2023/04/30 04:38:12;;;;;;;1.58;1.48;;;;;;;;;;5017769;28;20301;-63
2023/04/30 04:40:40;;;;;;;1.52;1.42;;;;;;;;;;5017435;28;20304;-63
2023/04/30 04:43:07;;;;;;;1.63;1.52;;;;;;;;;;5017673;28;20256;-63
2023/04/30 04:45:39;;;;;;;1.50;1.40;;;;;;;;;;5017662;28;20230;-63
2023/04/30 04:48:06;;;;;;;1.60;1.50;;;;;;;;;;5017997;28;20215;-63
2023/04/30 04:50:35;;;;;;;1.48;1.38;;;;;;;;;;5018193;28;20526;-63
2023/04/30 04:53:03;;;;;;;1.52;1.42;;;;;;;;;;5017756;28;20214;-63
2023/04/30 04:55:31;;;;;;;1.40;1.30;;;;;;;;;;5017466;28;20264;-63
2023/04/30 04:57:59;;;;;;;1.60;1.50;;;;;;;;;;5017426;28;20210;-63
2023/04/30 05:00:26;;;;;;;1.63;1.52;;;;;;;;;;5017350;28;20207;-63
2023/04/30 05:02:53;;;;;;;1.52;1.42;;;;;;;;;;5017725;28;20249;-63
2023/04/30 05:05:21;;;;;;;1.63;1.30;;;;;;;;;;5016889;28;20614;-63
2023/04/30 05:07:51;;;;;;;1.40;1.30;;;;;;;;;;5017674;28;20309;-63
2023/04/30 05:10:20;;;;;;;1.40;1.30;;;;;;;;;;5017882;28;20509;-63
2023/04/30 05:12:47;;;;;;;1.45;1.35;;;;;;;;;;5016589;28;20347;-63
2023/04/30 05:15:15;;;;;;;1.63;1.40;;;;;;;;;;5017506;28;20304;-63
2023/04/30 05:17:42;;;;;;;1.50;1.40;;;;;;;;;;5017100;28;20296;-63
2023/04/30 05:20:10;;;;;;;1.40;1.30;;;;;;;;;;5017381;28;20582;-63
2023/04/30 05:22:38;;;;;;;1.75;1.65;;;;;;;;;;5016976;28;20578;-63
2023/04/30 05:25:06;;;;;;;1.40;1.30;;;;;;;;;;5017463;28;20230;-63
2023/04/30 05:27:35;;;;;;;1.50;1.40;;;;;;;;;;5017213;28;20340;-63
2023/04/30 05:30:03;;;;;;;1.50;1.40;;;;;;;;;;5017403;28;20293;-63
2023/04/30 05:32:30;;;;;;;1.50;1.40;;;;;;;;;;5017391;28;20206;-63
2023/04/30 05:34:58;;;;;;;1.35;1.25;;;;;;;;;;5017085;28;20654;-63
2023/04/30 05:37:25;;;;;;;1.60;1.50;;;;;;;;;;5017450;28;20249;-63
2023/04/30 05:39:53;;;;;;;1.33;1.23;;;;;;;;;;5017019;28;20288;-63
2023/04/30 05:42:20;;;;;;;1.50;1.40;;;;;;;;;;5016241;28;20612;-63
2023/04/30 05:44:49;;;;;;;1.30;1.20;;;;;;;;;;5016712;28;20313;-63
2023/04/30 05:47:17;;;;;;;1.40;1.30;;;;;;;;;;5017399;28;20213;-63
2023/04/30 05:49:44;;;;;;;1.20;1.20;;;;;;;;;;5017153;28;20305;-63
2023/04/30 05:52:14;;;;;;;1.15;1.15;;;;;;;;;;5017095;28;20238;-63
2023/04/30 05:54:41;;;;;;;1.60;1.50;;;;;;;;;;5017308;28;20606;-63
2023/04/30 05:57:09;;;;;;;1.30;1.20;;;;;;;;;;5017739;28;20206;-63
2023/04/30 05:59:36;;;;;;;1.30;1.20;;;;;;;;;;5016292;28;20303;-63
2023/04/30 06:02:05;;;;;;;1.30;1.20;;;;;;;;;;5016843;28;20301;-62
2023/04/30 06:04:33;;;;;;;2.42;1.35;;;;;;;;;;5017308;28;20681;-62
2023/04/30 06:07:00;;;;;;;1.40;1.30;;;;;;;;;;5017084;28;20335;-62
2023/04/30 06:09:28;;;;;;;1.13;1.13;;;;;;;;;;5017215;28;20206;-62
2023/04/30 06:11:55;;;;;;;1.50;1.40;;;;;;;;;;5016951;28;20300;-62
2023/04/30 06:14:23;;;;;;;1.50;1.40;;;;;;;;;;5016942;28;20270;-62
2023/04/30 06:16:51;;;;;;;1.30;1.20;;;;;;;;;;5016894;28;20237;-62
2023/04/30 06:19:20;;;;;;;1.50;1.40;;;;;;;;;;5016775;28;20215;-62
2023/04/30 06:21:47;;;;;;;1.50;1.40;;;;;;;;;;5016531;28;20549;-63
2023/04/30 06:24:14;;;;;;;1.50;1.40;;;;;;;;;;5019813;28;20246;-63
2023/04/30 06:26:42;;;;;;;1.52;1.42;;;;;;;;;;5020033;28;20230;-63
2023/04/30 06:29:10;;;;;;;1.58;1.48;;;;;;;;;;5020352;28;20206;-63
2023/04/30 06:31:37;;;;;;;1.35;1.25;;;;;;;;;;5020005;28;20315;-63
2023/04/30 06:34:05;;;;;;;1.50;1.40;;;;;;;;;;5019776;28;20301;-63
2023/04/30 06:36:34;;;;;;;1.42;1.30;;;;;;;;;;5020024;28;20210;-63
2023/04/30 06:39:01;;;;;;;1.35;1.25;;;;;;;;;;5019984;28;20250;-63
2023/04/30 06:41:28;;;;;;;1.20;1.20;;;;;;;;;;5019684;28;20289;-63
2023/04/30 06:43:56;;;;;;;1.60;1.50;;;;;;;;;;5019998;28;20615;-63
2023/04/30 06:46:24;;;;;;;1.50;1.40;;;;;;;;;;5020232;28;20343;-63
2023/04/30 06:48:51;;;;;;;1.60;1.50;;;;;;;;;;5019462;28;20206;-63
2023/04/30 06:51:19;;;;;;;1.40;1.30;;;;;;;;;;5019585;28;20249;-63
2023/04/30 06:53:48;;;;;;;1.60;1.50;;;;;;;;;;5019592;28;20563;-63
2023/04/30 06:56:15;;;;;;;1.35;1.33;;;;;;;;;;5019317;28;20285;-63
2023/04/30 06:58:43;;;;;;;1.67;1.58;;;;;;;;;;5019277;28;20217;-63
2023/04/30 07:01:11;;;;;;;1.65;1.55;;;;;;;;;;5019414;28;20206;-63
2023/04/30 07:03:38;;;;;;;1.60;1.50;;;;;;;;;;5019092;28;20308;-62
2023/04/30 07:06:06;;;;;;;1.60;1.50;;;;;;;;;;5018916;28;20328;-62
2023/04/30 07:08:33;;;;;;;1.52;1.42;;;;;;;;;;5018929;28;20301;-62
2023/04/30 07:11:02;;;;;;;1.40;1.30;;;;;;;;;;5018079;28;20272;-62
2023/04/30 07:13:30;;;;;;;1.70;1.60;;;;;;;;;;5018741;28;20289;-62
2023/04/30 07:15:58;;;;;;;1.55;1.45;;;;;;;;;;5019261;28;20229;-62
2023/04/30 07:18:25;;;;;;;2.00;1.90;;;;;;;;;;5019347;28;20264;-62
2023/04/30 07:20:53;;;;;;;1.70;1.60;;;;;;;;;;5018639;28;20574;-62
2023/04/30 07:23:20;;;;;;;1.63;1.52;;;;;;;;;;5018954;28;20297;-62
2023/04/30 07:25:48;;;;;;;1.70;1.60;;;;;;;;;;5018628;28;20231;-62
2023/04/30 07:28:17;;;;;;;1.90;1.80;;;;;;;;;;5018282;28;20304;-62
2023/04/30 07:30:45;;;;;;;1.88;1.77;;;;;;;;;;5018708;28;20206;-62
2023/04/30 07:33:13;;;;;;;3.35;1.90;;;;;;;;;;5018725;28;20304;-62
2023/04/30 07:35:40;;;;;;;4.68;2.85;;;;;;;;;;5017574;28;20285;-62
2023/04/30 07:38:08;;;;;;;4.00;3.30;;;;;;;;;;5018585;28;20300;-62
2023/04/30 07:40:35;;;;;;;6.10;3.90;;;;;;;;;;5018915;28;20253;-62
2023/04/30 07:43:03;;;;;;;4.50;3.90;;;;;;;;;;5018510;28;20293;-62
2023/04/30 07:45:32;;;;;;;4.65;4.15;;;;;;;;;;5018023;28;20213;-62
2023/04/30 07:48:00;;;;;;;5.88;4.47;;;;;;;;;;5018587;28;20233;-62
2023/04/30 07:50:32;;;;;;;6.40;4.57;;;;;;;;;;5018158;28;20214;-62
2023/04/30 07:53:00;;;;;;;6.30;4.72;;;;;;;;;;5017804;28;20207;-62
2023/04/30 07:55:27;;;;;;;5.35;4.57;;;;;;;;;;5018351;28;20218;-62
2023/04/30 07:57:55;;;;;;;6.30;4.85;;;;;;;;;;5018433;28;20206;-62
2023/04/30 08:00:22;;;;;;;5.78;4.55;;;;;;;;;;5018317;28;20550;-62
2023/04/30 08:02:52;;;;;;;6.38;4.75;;;;;;;;;;5018147;28;20211;-63
2023/04/30 08:05:20;;;;;;;6.70;4.90;;;;;;;;;;5018447;28;20206;-62
2023/04/30 08:07:47;;;;;;;6.13;4.90;;;;;;;;;;5017366;28;20787;-62
2023/04/30 08:10:14;;;;;;;6.38;4.47;;;;;;;;;;5018122;28;20210;-62
2023/04/30 08:12:42;;;;;;;6.78;4.60;;;;;;;;;;5017823;28;20246;-62
2023/04/30 08:15:09;;;;;;;6.25;4.40;;;;;;;;;;5017582;28;20241;-63
2023/04/30 08:17:37;;;;;;;6.82;4.88;;;;;;;;;;5017729;28;20244;-63
2023/04/30 08:20:07;;;;;;;5.90;5.00;;;;;;;;;;5017653;28;20672;-63
2023/04/30 08:22:35;;;;;;;6.95;5.18;;;;;;;;;;5017597;28;20299;-63
2023/04/30 08:25:02;;;;;;;6.90;4.88;;;;;;;;;;5018030;28;20213;-63
2023/04/30 08:27:31;;;;;;;5.50;4.65;;;;;;;;;;5017219;28;20226;-63
2023/04/30 08:29:59;;;;;;;6.18;5.18;;;;;;;;;;5017213;28;20304;-63
2023/04/30 08:32:27;;;;;;;6.28;5.00;;;;;;;;;;5016790;28;20233;-62
2023/04/30 08:34:55;;;;;;;7.47;5.25;;;;;;;;;;5017802;28;20218;-62
2023/04/30 08:37:23;;;;;;;6.65;5.22;;;;;;;;;;5017719;28;20305;-62
2023/04/30 08:39:51;;;;;;;8.73;5.18;;;;;;;;;;5017242;28;20558;-62
2023/04/30 08:42:20;;;;;;;8.68;5.72;;;;;;;;;;5017124;28;20293;-62
2023/04/30 08:44:47;;;;;;;6.85;5.53;;;;;;;;;;5017374;28;20210;-63
2023/04/30 08:47:15;;;;;;;8.18;5.70;;;;;;;;;;5016193;28;20636;-63
2023/04/30 08:49:43;;;;;;;8.23;5.63;;;;;;;;;;5016965;28;20234;-63
2023/04/30 08:52:11;;;;;;;8.02;6.22;;;;;;;;;;5017067;28;20210;-63
2023/04/30 08:54:40;;;;;;;8.60;6.13;;;;;;;;;;5017138;28;20214;-63
2023/04/30 08:57:07;;;;;;;8.55;5.68;;;;;;;;;;5017105;28;20237;-63
2023/04/30 08:59:35;;;;;;;7.60;6.30;;;;;;;;;;5016893;28;20586;-63
2023/04/30 09:02:02;;;;;;;8.45;5.95;;;;;;;;;;5016780;28;20205;-63
2023/04/30 09:04:30;;;;;;;9.70;6.53;;;;;;;;;;5016967;28;20319;-63
2023/04/30 09:06:58;;;;;;;7.85;6.28;;;;;;;;;;5016821;28;20345;-63
2023/04/30 09:09:28;;;;;;;8.43;6.45;;;;;;;;;;5016642;28;20206;-63
2023/04/30 09:12:11;;;;;;;8.02;6.75;;;;;;;;;;5015803;28;20238;-63
2023/04/30 09:14:39;;;;;;;8.55;6.45;;;;;;;;;;5017540;28;20214;-63
2023/04/30 09:17:07;;;;;;;8.05;6.35;;;;;;;;;;5016118;28;20252;-63
2023/04/30 09:19:35;;;;;;;8.40;6.20;;;;;;;;;;5016242;28;20205;-63
2023/04/30 09:22:17;;;;;;;8.30;6.40;;;;;;;;;;5016089;28;20198;-62
2023/04/30 09:24:47;;;;;;;9.30;6.65;;;;;;;;;;5015205;28;20546;-62
2023/04/30 09:27:18;;;;;;;7.10;6.25;;;;;;;;;;5015927;28;20333;-62
2023/04/30 09:29:45;;;;;;;8.45;6.25;;;;;;;;;;5016151;28;20206;-62
2023/04/30 09:32:13;;;;;;;8.45;6.40;;;;;;;;;;5016428;28;20217;-62
2023/04/30 09:34:42;;;;;;;9.20;6.57;;;;;;;;;;5014917;28;20207;-62
2023/04/30 09:37:10;;;;;;;7.63;6.25;;;;;;;;;;5015581;28;20213;-62
2023/04/30 09:39:55;;;;;;;7.88;6.70;;;;;;;;;;5014997;28;20304;-62
2023/04/30 09:42:24;;;;;;;8.02;6.35;;;;;;;;;;5009509;28;20234;-62
2023/04/30 09:44:54;;;;;;;7.85;6.20;;;;;;;;;;5015756;28;20241;-62
2023/04/30 09:47:21;;;;;;;8.45;6.57;;;;;;;;;;5015567;28;20613;-62
2023/04/30 09:49:50;;;;;;;9.68;6.32;;;;;;;;;;5015955;28;20234;-62
2023/04/30 09:52:19;;;;;;;7.68;6.57;;;;;;;;;;5014643;28;20217;-62
2023/04/30 09:54:48;;;;;;;7.28;6.13;;;;;;;;;;5013435;28;20202;-62
2023/04/30 09:57:18;;;;;;;7.28;6.43;;;;;;;;;;5013323;28;20214;-63
2023/04/30 09:59:47;;;;;;;7.55;6.30;;;;;;;;;;5019755;28;20245;-63
2023/04/30 10:02:16;;;;;;;6.72;5.90;;;;;;;;;;5019272;28;20210;-63
2023/04/30 10:04:44;;;;;;;7.40;6.43;;;;;;;;;;5017646;28;20476;-63
2023/04/30 10:07:16;;;;;;;8.73;6.75;;;;;;;;;;5006017;28;20226;-63
2023/04/30 10:09:49;;;;;;;7.47;6.10;;;;;;;;;;5019755;28;20301;-63
2023/04/30 10:12:16;;;;;;;7.85;6.20;;;;;;;;;;5019770;28;20278;-63
2023/04/30 10:14:50;;;;;;;7.18;6.30;;;;;;;;;;5019458;28;20309;-63
2023/04/30 10:17:18;;;;;;;6.57;5.78;;;;;;;;;;5019206;28;20233;-63
2023/04/30 10:19:47;;;;;;;6.55;5.32;;;;;;;;;;5018047;28;20277;-63
2023/04/30 10:22:15;;;;;;;6.90;5.78;;;;;;;;;;5017286;28;20206;-63
2023/04/30 10:24:43;;;;;;;6.45;5.85;;;;;;;;;;5018734;28;20206;-63
2023/04/30 10:27:11;;;;;;;6.32;5.68;;;;;;;;;;5018684;28;20236;-63
2023/04/30 10:29:38;;;;;;;7.22;6.07;;;;;;;;;;5017073;28;20305;-63
2023/04/30 10:32:08;;;;;;;7.30;6.15;;;;;;;;;;5018942;28;20241;-63
2023/04/30 10:34:46;;;;;;;6.47;5.55;;;;;;;;;;5018394;28;20553;-63
2023/04/30 10:37:17;;;;;;;6.32;5.70;;;;;;;;;;5018093;28;20660;-63
2023/04/30 10:39:45;;;;;;;6.15;5.47;;;;;;;;;;5018138;28;20210;-63
2023/04/30 10:42:12;;;;;;;6.25;5.65;;;;;;;;;;5017883;28;20214;-63
2023/04/30 10:44:40;;;;;;;6.45;5.40;;;;;;;;;;5018736;28;20293;-63
2023/04/30 10:47:09;;;;;;;6.07;5.30;;;;;;;;;;5018563;28;20321;-63
2023/04/30 10:49:36;;;;;;;6.00;5.40;;;;;;;;;;5018455;28;20246;-63
2023/04/30 10:52:04;;;;;;;6.00;5.30;;;;;;;;;;5018295;28;20650;-63
2023/04/30 10:54:34;;;;;;;6.63;5.60;;;;;;;;;;5018090;28;20609;-63
2023/04/30 10:57:12;;;;;;;5.85;5.05;;;;;;;;;;5018159;28;20203;-63
2023/04/30 10:59:45;;;;;;;6.43;5.25;;;;;;;;;;5018381;28;20240;-63
2023/04/30 11:02:16;;;;;;;5.97;5.00;;;;;;;;;;5017722;28;20206;-63
2023/04/30 11:05:02;;;;;;;6.18;5.57;;;;;;;;;;5017564;28;20234;-63
2023/04/30 11:07:29;;;;;;;6.13;5.28;;;;;;;;;;5017721;28;20642;-63
2023/04/30 11:09:58;;;;;;;6.30;5.72;;;;;;;;;;5017339;28;20609;-63
2023/04/30 11:12:28;;;;;;;5.30;4.80;;;;;;;;;;5016615;28;20234;-63
2023/04/30 11:15:01;;;;;;;6.00;5.40;;;;;;;;;;5017538;28;20206;-63
2023/04/30 11:17:34;;;;;;;5.88;5.28;;;;;;;;;;5017192;28;20294;-63
2023/04/30 11:20:04;;;;;;;8.02;5.63;;;;;;;;;;5037160;28;20267;-63
2023/04/30 11:22:35;;;;;;;8.52;5.65;;;;;;;;;;5037243;28;20202;-63
2023/04/30 11:25:08;;;;;;;9.25;6.60;;;;;;;;;;5037078;28;20295;-63
2023/04/30 11:27:36;;;;;;;7.80;6.28;;;;;;;;;;5037257;28;20312;-63
2023/04/30 11:30:05;;;;;;;12.00;7.55;;;;;;;;;;5036725;28;20304;-63
2023/04/30 11:32:37;;;;;;;8.23;6.70;;;;;;;;;;5037186;28;20700;-63
2023/04/30 11:35:05;;;;;;;11.93;7.65;;;;;;;;;;5037711;28;20586;-63
2023/04/30 11:37:33;;;;;;;12.57;7.03;;;;;;;;;;5037640;28;20554;-64
2023/04/30 11:40:02;;;;;;;8.88;6.50;;;;;;;;;;5037596;28;20308;-63
2023/04/30 11:42:33;;;;;;;10.32;6.70;;;;;;;;;;5036664;28;20220;-63
2023/04/30 11:45:04;;;;;;;10.45;7.03;;;;;;;;;;5036930;28;20205;-63
2023/04/30 11:47:41;;;;;;;10.40;6.47;;;;;;;;;;5036876;28;20229;-63
2023/04/30 11:50:09;;;;;;;9.15;6.03;;;;;;;;;;5036806;28;20201;-63
2023/04/30 11:52:36;;;;;;;8.32;6.65;;;;;;;;;;5036279;28;20209;-63
2023/04/30 11:55:08;;;;;;;7.35;5.75;;;;;;;;;;5036696;28;20241;-63
2023/04/30 11:57:40;;;;;;;8.00;5.90;;;;;;;;;;5036853;28;20225;-63
2023/04/30 12:00:10;;;;;;;7.88;5.85;;;;;;;;;;5036827;28;20256;-63
2023/04/30 12:02:38;;;;;;;8.25;5.72;;;;;;;;;;5036317;28;20217;-63
2023/04/30 12:05:14;;;;;;;9.48;6.30;;;;;;;;;;5036967;28;20241;-63
2023/04/30 12:07:46;;;;;;;8.07;6.10;;;;;;;;;;5035973;28;20229;-63
2023/04/30 12:10:14;;;;;;;6.32;5.53;;;;;;;;;;5036919;28;20216;-63
2023/04/30 12:12:41;;;;;;;7.90;5.68;;;;;;;;;;5035849;28;20330;-63
2023/04/30 12:15:12;;;;;;;6.78;5.57;;;;;;;;;;5036126;28;20533;-63
2023/04/30 12:17:40;;;;;;;8.20;5.80;;;;;;;;;;5036050;28;20231;-63
2023/04/30 12:20:09;;;;;;;6.05;5.22;;;;;;;;;;5035850;28;20245;-63
2023/04/30 12:22:38;;;;;;;8.82;5.78;;;;;;;;;;5036129;28;20308;-63
2023/04/30 12:25:10;;;;;;;7.80;5.70;;;;;;;;;;5036113;28;20256;-63
2023/04/30 12:27:38;;;;;;;6.10;5.25;;;;;;;;;;5036315;28;20623;-63
2023/04/30 12:30:08;;;;;;;5.72;5.03;;;;;;;;;;5036233;28;20236;-63
2023/04/30 12:32:40;;;;;;;5.45;4.90;;;;;;;;;;5035406;28;20206;-63
2023/04/30 12:35:10;;;;;;;7.30;5.20;;;;;;;;;;5035311;28;20235;-63
2023/04/30 12:37:42;;;;;;;6.05;4.93;;;;;;;;;;5036567;28;20209;-63
2023/04/30 12:40:10;;;;;;;6.00;4.85;;;;;;;;;;5035360;28;20205;-63
2023/04/30 12:42:37;;;;;;;6.57;4.70;;;;;;;;;;5036031;28;20284;-63
2023/04/30 12:45:05;;;;;;;6.28;5.05;;;;;;;;;;5035320;28;20668;-63
2023/04/30 12:47:33;;;;;;;6.28;4.93;;;;;;;;;;5036216;28;20316;-63
2023/04/30 12:50:01;;;;;;;5.43;4.78;;;;;;;;;;5036089;28;20296;-63
2023/04/30 12:52:30;;;;;;;5.78;4.55;;;;;;;;;;5035110;28;20292;-63
2023/04/30 12:54:57;;;;;;;6.32;4.80;;;;;;;;;;5035319;28;20316;-62
2023/04/30 12:57:25;;;;;;;5.50;4.50;;;;;;;;;;5035463;28;20201;-62
2023/04/30 12:59:59;;;;;;;6.18;4.40;;;;;;;;;;5035729;28;20260;-62
2023/04/30 13:02:30;;;;;;;5.32;4.38;;;;;;;;;;5035279;28;20205;-62
2023/04/30 13:04:58;;;;;;;4.57;4.18;;;;;;;;;;5035771;28;20202;-63
2023/04/30 13:07:25;;;;;;;5.18;4.00;;;;;;;;;;5035784;28;20284;-63
2023/04/30 13:09:54;;;;;;;4.90;3.70;;;;;;;;;;5035050;28;20205;-63
2023/04/30 13:12:21;;;;;;;4.80;4.30;;;;;;;;;;5035660;28;20332;-63
2023/04/30 13:14:49;;;;;;;5.20;4.13;;;;;;;;;;5035521;28;20295;-63
2023/04/30 13:17:17;;;;;;;4.65;3.90;;;;;;;;;;5035942;28;20205;-63
2023/04/30 13:19:44;;;;;;;4.57;4.10;;;;;;;;;;5035461;28;20240;-63
2023/04/30 13:22:12;;;;;;;4.82;3.90;;;;;;;;;;5035049;28;20241;-63
2023/04/30 13:24:39;;;;;;;4.20;3.80;;;;;;;;;;5035216;28;20577;-63
2023/04/30 13:27:08;;;;;;;4.43;4.03;;;;;;;;;;5035723;28;20306;-63
2023/04/30 13:29:36;;;;;;;4.18;3.78;;;;;;;;;;5035553;28;20663;-63
2023/04/30 13:32:03;;;;;;;5.97;3.80;;;;;;;;;;5035267;28;20240;-63
2023/04/30 13:34:31;;;;;;;3.83;3.45;;;;;;;;;;5039275;28;20312;-63
2023/04/30 13:36:59;;;;;;;4.20;3.80;;;;;;;;;;5039463;28;20585;-63
2023/04/30 13:39:26;;;;;;;3.95;3.55;;;;;;;;;;5039105;28;20202;-63
2023/04/30 13:41:54;;;;;;;4.05;3.65;;;;;;;;;;5038824;28;20588;-63
2023/04/30 13:44:23;;;;;;;3.70;3.40;;;;;;;;;;5038657;28;20453;-63
2023/04/30 13:46:50;;;;;;;4.40;3.78;;;;;;;;;;5039104;28;20236;-63
2023/04/30 13:49:18;;;;;;;3.65;3.35;;;;;;;;;;5038845;28;20635;-63
2023/04/30 13:51:45;;;;;;;4.05;3.63;;;;;;;;;;5039007;28;20206;-63
2023/04/30 13:54:13;;;;;;;3.55;3.20;;;;;;;;;;5039199;28;20515;-63
2023/04/30 13:56:40;;;;;;;4.80;3.38;;;;;;;;;;5039688;28;20320;-63
2023/04/30 13:59:08;;;;;;;3.60;3.30;;;;;;;;;;5037909;28;20233;-63
2023/04/30 14:01:37;;;;;;;3.47;3.17;;;;;;;;;;5038230;28;20304;-63
2023/04/30 14:04:04;;;;;;;2.92;2.63;;;;;;;;;;5038612;28;20304;-62
2023/04/30 14:06:32;;;;;;;3.20;2.90;;;;;;;;;;5037865;28;20210;-61
2023/04/30 14:09:00;;;;;;;3.10;2.85;;;;;;;;;;5037827;28;20325;-61
2023/04/30 14:11:27;;;;;;;6.53;4.85;;;;;;;;;;5037512;28;20279;-62
2023/04/30 14:13:55;;;;;;;74.03;38.70;;;;;;;;;;5038531;28;20284;-62
2023/04/30 14:16:22;;;;;;;111.60;53.58;;;;;;;;;;5038400;28;20682;-62
2023/04/30 14:18:51;;;;;;;125.78;65.18;;;;;;;;;;5038171;28;20237;-63
2023/04/30 14:21:18;;;;;;;154.27;80.68;;;;;;;;;;5037849;28;20292;-62
2023/04/30 14:23:46;;;;;;;182.48;101.88;;;;;;;;;;5037827;28;20598;-62
2023/04/30 14:26:14;;;;;;;170.60;94.60;;;;;;;;;;5037559;28;20202;-62
2023/04/30 14:28:41;;;;;;;190.05;105.13;;;;;;;;;;5037031;28;20695;-62
2023/04/30 14:31:09;;;;;;;175.73;95.38;;;;;;;;;;5037847;28;20268;-62
2023/04/30 14:33:36;;;;;;;168.35;92.65;;;;;;;;;;5037560;28;20213;-62
2023/04/30 14:36:06;;;;;;;172.93;95.47;;;;;;;;;;5038076;28;20517;-62
2023/04/30 14:38:34;;;;;;;176.98;96.68;;;;;;;;;;5037629;28;20684;-62
2023/04/30 14:41:01;;;;;;;169.88;93.13;;;;;;;;;;5036954;28;20303;-63
2023/04/30 14:43:29;;;;;;;153.88;87.10;;;;;;;;;;5037239;28;20523;-63
2023/04/30 14:45:57;;;;;;;148.43;81.88;;;;;;;;;;5037946;28;20233;-63
2023/04/30 14:48:24;;;;;;;150.55;82.22;;;;;;;;;;5037274;28;20324;-62